sensor_id;sensor_type;location;lat;lon;timestamp;temperature;humidity
22674;DHT22;11504;43.334;21.918;2023-02-11T00:03:06;-0.3;100.0
22674;DHT22;11504;43.334;21.918;2023-02-11T00:07:43;-0.4;100.0
22674;DHT22;11504;43.334;21.918;2023-02-11T00:12:19;-0.4;100.0
22674;DHT22;11504;43.334;21.918;2023-02-11T00:16:56;-0.4;100.0
22674;DHT22;11504;43.334;21.918;2023-02-11T00:21:34;-0.4;100.0
22674;DHT22;11504;43.334;21.918;2023-02-11T00:26:15;-0.4;100.0
22674;DHT22;11504;43.334;21.918;2023-02-11T00:30:57;-0.4;100.0
22674;DHT22;11504;43.334;21.918;2023-02-11T00:35:37;-0.4;100.0
22674;DHT22;11504;43.334;21.918;2023-02-11T00:40:15;-0.4;100.0
22674;DHT22;11504;43.334;21.918;2023-02-11T00:44:52;-0.4;100.0
22674;DHT22;11504;43.334;21.918;2023-02-11T00:49:28;-0.5;100.0
22674;DHT22;11504;43.334;21.918;2023-02-11T00:54:06;-0.5;100.0
22674;DHT22;11504;43.334;21.918;2023-02-11T00:58:43;-0.6;100.0
22674;DHT22;11504;43.334;21.918;2023-02-11T01:03:20;-0.6;100.0
22674;DHT22;11504;43.334;21.918;2023-02-11T01:07:57;-0.6;100.0
22674;DHT22;11504;43.334;21.918;2023-02-11T01:12:34;-0.6;100.0
22674;DHT22;11504;43.334;21.918;2023-02-11T01:17:11;-0.6;100.0
22674;DHT22;11504;43.334;21.918;2023-02-11T01:21:48;-0.7;100.0
22674;DHT22;11504;43.334;21.918;2023-02-11T01:26:24;-0.7;100.0
22674;DHT22;11504;43.334;21.918;2023-02-11T01:31:02;-0.8;100.0
22674;DHT22;11504;43.334;21.918;2023-02-11T01:35:43;-0.8;100.0
22674;DHT22;11504;43.334;21.918;2023-02-11T01:40:22;-0.8;100.0
22674;DHT22;11504;43.334;21.918;2023-02-11T01:45:57;-0.8;100.0
22674;DHT22;11504;43.334;21.918;2023-02-11T01:51:21;-0.8;100.0
22674;DHT22;11504;43.334;21.918;2023-02-11T01:56:14;-0.8;100.0
22674;DHT22;11504;43.334;21.918;2023-02-11T02:00:58;-0.9;100.0
22674;DHT22;11504;43.334;21.918;2023-02-11T02:06:00;-0.9;100.0
22674;DHT22;11504;43.334;21.918;2023-02-11T02:10:53;-1.0;100.0
22674;DHT22;11504;43.334;21.918;2023-02-11T02:15:36;-1.0;100.0
22674;DHT22;11504;43.334;21.918;2023-02-11T02:21:18;-1.2;100.0
22674;DHT22;11504;43.334;21.918;2023-02-11T02:29:35;-1.3;100.0
22674;DHT22;11504;43.334;21.918;2023-02-11T02:34:50;-1.3;100.0
22674;DHT22;11504;43.334;21.918;2023-02-11T02:39:38;-1.4;100.0
22674;DHT22;11504;43.334;21.918;2023-02-11T02:44:15;-1.4;100.0
22674;DHT22;11504;43.334;21.918;2023-02-11T02:48:56;-1.6;100.0
22674;DHT22;11504;43.334;21.918;2023-02-11T02:53:59;-1.6;100.0
22674;DHT22;11504;43.334;21.918;2023-02-11T02:59:53;-1.8;100.0
22674;DHT22;11504;43.334;21.918;2023-02-11T03:05:12;-1.8;100.0
22674;DHT22;11504;43.334;21.918;2023-02-11T03:10:14;-1.9;100.0
22674;DHT22;11504;43.334;21.918;2023-02-11T03:15:07;-1.9;100.0
22674;DHT22;11504;43.334;21.918;2023-02-11T03:19:50;-2.0;100.0
22674;DHT22;11504;43.334;21.918;2023-02-11T03:24:37;-2.0;100.0
22674;DHT22;11504;43.334;21.918;2023-02-11T03:29:34;-2.1;100.0
22674;DHT22;11504;43.334;21.918;2023-02-11T03:34:31;-2.1;100.0
22674;DHT22;11504;43.334;21.918;2023-02-11T03:39:24;-2.2;100.0
22674;DHT22;11504;43.334;21.918;2023-02-11T03:44:15;-2.2;100.0
22674;DHT22;11504;43.334;21.918;2023-02-11T03:49:02;-2.3;100.0
22674;DHT22;11504;43.334;21.918;2023-02-11T03:53:49;-2.3;100.0
22674;DHT22;11504;43.334;21.918;2023-02-11T03:58:32;-2.4;100.0
22674;DHT22;11504;43.334;21.918;2023-02-11T04:03:11;-2.4;100.0
22674;DHT22;11504;43.334;21.918;2023-02-11T04:07:49;-2.7;100.0
22674;DHT22;11504;43.334;21.918;2023-02-11T04:12:25;-2.7;100.0
22674;DHT22;11504;43.334;21.918;2023-02-11T04:17:04;-2.7;100.0
22674;DHT22;11504;43.334;21.918;2023-02-11T04:21:41;-3.0;100.0
22674;DHT22;11504;43.334;21.918;2023-02-11T04:26:18;-3.0;100.0
22674;DHT22;11504;43.334;21.918;2023-02-11T04:30:56;-2.9;100.0
22674;DHT22;11504;43.334;21.918;2023-02-11T04:35:34;-2.9;100.0
22674;DHT22;11504;43.334;21.918;2023-02-11T04:40:11;-2.8;100.0
22674;DHT22;11504;43.334;21.918;2023-02-11T04:44:48;-2.8;100.0
22674;DHT22;11504;43.334;21.918;2023-02-11T04:49:25;-2.8;100.0
22674;DHT22;11504;43.334;21.918;2023-02-11T04:54:01;-2.8;100.0
22674;DHT22;11504;43.334;21.918;2023-02-11T04:58:37;-2.7;100.0
22674;DHT22;11504;43.334;21.918;2023-02-11T05:03:15;-2.7;100.0
22674;DHT22;11504;43.334;21.918;2023-02-11T05:07:52;-2.7;100.0
22674;DHT22;11504;43.334;21.918;2023-02-11T05:12:28;-2.8;100.0
22674;DHT22;11504;43.334;21.918;2023-02-11T05:17:04;-2.8;100.0
22674;DHT22;11504;43.334;21.918;2023-02-11T05:21:41;-3.0;100.0
22674;DHT22;11504;43.334;21.918;2023-02-11T05:26:18;-3.0;100.0
22674;DHT22;11504;43.334;21.918;2023-02-11T05:30:55;-3.1;100.0
22674;DHT22;11504;43.334;21.918;2023-02-11T05:35:32;-3.1;100.0
22674;DHT22;11504;43.334;21.918;2023-02-11T05:40:11;-3.2;100.0
22674;DHT22;11504;43.334;21.918;2023-02-11T05:44:48;-3.2;100.0
22674;DHT22;11504;43.334;21.918;2023-02-11T05:49:24;-3.2;100.0
22674;DHT22;11504;43.334;21.918;2023-02-11T05:54:01;-3.2;100.0
22674;DHT22;11504;43.334;21.918;2023-02-11T05:58:38;-3.1;100.0
22674;DHT22;11504;43.334;21.918;2023-02-11T06:03:15;-3.1;100.0
22674;DHT22;11504;43.334;21.918;2023-02-11T06:07:51;-3.1;100.0
22674;DHT22;11504;43.334;21.918;2023-02-11T06:12:28;-2.4;100.0
22674;DHT22;11504;43.334;21.918;2023-02-11T06:17:04;-2.4;100.0
22674;DHT22;11504;43.334;21.918;2023-02-11T06:21:41;-1.8;100.0
22674;DHT22;11504;43.334;21.918;2023-02-11T06:26:23;-1.8;100.0
22674;DHT22;11504;43.334;21.918;2023-02-11T06:31:05;-0.8;100.0
22674;DHT22;11504;43.334;21.918;2023-02-11T06:35:43;-0.8;100.0
22674;DHT22;11504;43.334;21.918;2023-02-11T06:40:20;0.3;100.0
22674;DHT22;11504;43.334;21.918;2023-02-11T06:44:57;0.3;100.0
22674;DHT22;11504;43.334;21.918;2023-02-11T06:49:34;1.0;100.0
22674;DHT22;11504;43.334;21.918;2023-02-11T06:54:11;1.0;100.0
22674;DHT22;11504;43.334;21.918;2023-02-11T06:58:52;1.7;100.0
22674;DHT22;11504;43.334;21.918;2023-02-11T07:03:32;1.7;100.0
22674;DHT22;11504;43.334;21.918;2023-02-11T07:08:14;2.7;100.0
22674;DHT22;11504;43.334;21.918;2023-02-11T07:12:51;2.7;100.0
22674;DHT22;11504;43.334;21.918;2023-02-11T07:17:28;2.7;100.0
22674;DHT22;11504;43.334;21.918;2023-02-11T07:22:05;3.7;100.0
22674;DHT22;11504;43.334;21.918;2023-02-11T07:26:42;3.7;100.0
22674;DHT22;11504;43.334;21.918;2023-02-11T07:31:26;4.6;100.0
22674;DHT22;11504;43.334;21.918;2023-02-11T07:36:10;4.6;100.0
22674;DHT22;11504;43.334;21.918;2023-02-11T07:40:48;5.6;100.0
22674;DHT22;11504;43.334;21.918;2023-02-11T07:45:24;5.6;100.0
22674;DHT22;11504;43.334;21.918;2023-02-11T07:50:01;6.6;100.0
22674;DHT22;11504;43.334;21.918;2023-02-11T07:54:37;6.6;100.0
22674;DHT22;11504;43.334;21.918;2023-02-11T07:59:14;7.6;100.0
22674;DHT22;11504;43.334;21.918;2023-02-11T08:03:52;7.6;100.0
22674;DHT22;11504;43.334;21.918;2023-02-11T08:08:30;8.4;100.0
22674;DHT22;11504;43.334;21.918;2023-02-11T08:13:06;8.4;100.0
22674;DHT22;11504;43.334;21.918;2023-02-11T08:17:43;8.4;100.0
22674;DHT22;11504;43.334;21.918;2023-02-11T08:22:19;9.2;100.0
22674;DHT22;11504;43.334;21.918;2023-02-11T08:26:56;9.2;100.0
22674;DHT22;11504;43.334;21.918;2023-02-11T08:31:38;9.4;100.0
22674;DHT22;11504;43.334;21.918;2023-02-11T08:36:26;9.4;100.0
22674;DHT22;11504;43.334;21.918;2023-02-11T08:41:11;9.7;100.0
22674;DHT22;11504;43.334;21.918;2023-02-11T08:45:49;9.7;100.0
22674;DHT22;11504;43.334;21.918;2023-02-11T08:50:26;9.8;100.0
22674;DHT22;11504;43.334;21.918;2023-02-11T08:55:04;9.8;100.0
22674;DHT22;11504;43.334;21.918;2023-02-11T08:59:41;10.0;100.0
22674;DHT22;11504;43.334;21.918;2023-02-11T09:04:18;10.0;100.0
22674;DHT22;11504;43.334;21.918;2023-02-11T09:08:57;10.4;100.0
22674;DHT22;11504;43.334;21.918;2023-02-11T09:13:35;10.4;100.0
22674;DHT22;11504;43.334;21.918;2023-02-11T09:18:13;10.7;100.0
22674;DHT22;11504;43.334;21.918;2023-02-11T09:22:50;10.7;100.0
22674;DHT22;11504;43.334;21.918;2023-02-11T09:27:26;10.7;100.0
22674;DHT22;11504;43.334;21.918;2023-02-11T09:32:04;11.1;100.0
22674;DHT22;11504;43.334;21.918;2023-02-11T09:36:41;11.1;100.0
22674;DHT22;11504;43.334;21.918;2023-02-11T09:41:59;11.5;100.0
22674;DHT22;11504;43.334;21.918;2023-02-11T09:47:30;11.5;100.0
22674;DHT22;11504;43.334;21.918;2023-02-11T09:52:42;11.3;100.0
22674;DHT22;11504;43.334;21.918;2023-02-11T09:57:36;11.3;100.0
22674;DHT22;11504;43.334;21.918;2023-02-11T10:02:33;11.1;100.0
22674;DHT22;11504;43.334;21.918;2023-02-11T10:07:59;11.1;100.0
22674;DHT22;11504;43.334;21.918;2023-02-11T10:13:37;11.1;100.0
22674;DHT22;11504;43.334;21.918;2023-02-11T10:19:21;11.1;100.0
22674;DHT22;11504;43.334;21.918;2023-02-11T10:24:30;11.1;100.0
22674;DHT22;11504;43.334;21.918;2023-02-11T10:29:32;10.5;100.0
22674;DHT22;11504;43.334;21.918;2023-02-11T10:34:15;10.5;100.0
22674;DHT22;11504;43.334;21.918;2023-02-11T10:38:52;9.9;100.0
22674;DHT22;11504;43.334;21.918;2023-02-11T10:43:33;9.9;100.0
22674;DHT22;11504;43.334;21.918;2023-02-11T10:48:43;9.6;100.0
22674;DHT22;11504;43.334;21.918;2023-02-11T10:53:22;9.6;100.0
22674;DHT22;11504;43.334;21.918;2023-02-11T10:58:03;9.6;100.0
22674;DHT22;11504;43.334;21.918;2023-02-11T11:02:43;9.3;100.0
22674;DHT22;11504;43.334;21.918;2023-02-11T11:07:33;9.3;100.0
22674;DHT22;11504;43.334;21.918;2023-02-11T11:12:36;8.6;100.0
22674;DHT22;11504;43.334;21.918;2023-02-11T11:17:24;8.6;100.0
22674;DHT22;11504;43.334;21.918;2023-02-11T11:22:03;7.8;100.0
22674;DHT22;11504;43.334;21.918;2023-02-11T11:26:47;7.8;100.0
22674;DHT22;11504;43.334;21.918;2023-02-11T11:31:45;7.6;100.0
22674;DHT22;11504;43.334;21.918;2023-02-11T11:36:38;7.6;100.0
22674;DHT22;11504;43.334;21.918;2023-02-11T11:41:26;7.4;100.0
22674;DHT22;11504;43.334;21.918;2023-02-11T11:46:08;7.4;100.0
22674;DHT22;11504;43.334;21.918;2023-02-11T11:50:55;7.6;100.0
22674;DHT22;11504;43.334;21.918;2023-02-11T11:55:50;7.6;100.0
22674;DHT22;11504;43.334;21.918;2023-02-11T12:01:07;7.8;100.0
22674;DHT22;11504;43.334;21.918;2023-02-11T12:06:39;7.8;100.0
22674;DHT22;11504;43.334;21.918;2023-02-11T12:12:26;7.8;100.0
22674;DHT22;11504;43.334;21.918;2023-02-11T12:18:12;7.8;100.0
22674;DHT22;11504;43.334;21.918;2023-02-11T12:24:18;7.8;100.0
22674;DHT22;11504;43.334;21.918;2023-02-11T12:30:19;7.6;100.0
22674;DHT22;11504;43.334;21.918;2023-02-11T12:36:05;7.6;100.0
22674;DHT22;11504;43.334;21.918;2023-02-11T12:41:52;7.5;100.0
22674;DHT22;11504;43.334;21.918;2023-02-11T12:47:32;7.5;100.0
22674;DHT22;11504;43.334;21.918;2023-02-11T12:53:11;7.6;100.0
22674;DHT22;11504;43.334;21.918;2023-02-11T12:58:33;7.8;100.0
22674;DHT22;11504;43.334;21.918;2023-02-11T13:03:29;7.8;100.0
22674;DHT22;11504;43.334;21.918;2023-02-11T13:08:26;7.8;100.0
22674;DHT22;11504;43.334;21.918;2023-02-11T13:13:24;7.8;100.0
22674;DHT22;11504;43.334;21.918;2023-02-11T13:18:34;7.9;100.0
22674;DHT22;11504;43.334;21.918;2023-02-11T13:23:45;7.9;100.0
22674;DHT22;11504;43.334;21.918;2023-02-11T13:28:50;7.9;100.0
22674;DHT22;11504;43.334;21.918;2023-02-11T13:33:42;7.9;100.0
22674;DHT22;11504;43.334;21.918;2023-02-11T13:38:26;7.9;100.0
22674;DHT22;11504;43.334;21.918;2023-02-11T13:43:25;7.9;100.0
22674;DHT22;11504;43.334;21.918;2023-02-11T13:48:23;7.9;100.0
22674;DHT22;11504;43.334;21.918;2023-02-11T13:53:07;7.9;100.0
22674;DHT22;11504;43.334;21.918;2023-02-11T13:57:44;7.9;100.0
22674;DHT22;11504;43.334;21.918;2023-02-11T14:03:35;7.9;100.0
22674;DHT22;11504;43.334;21.918;2023-02-11T14:09:35;7.8;100.0
22674;DHT22;11504;43.334;21.918;2023-02-11T14:14:23;7.8;100.0
22674;DHT22;11504;43.334;21.918;2023-02-11T14:19:07;7.8;100.0
22674;DHT22;11504;43.334;21.918;2023-02-11T14:23:46;7.8;100.0
22674;DHT22;11504;43.334;21.918;2023-02-11T14:28:29;7.6;100.0
22674;DHT22;11504;43.334;21.918;2023-02-11T14:33:51;7.6;100.0
22674;DHT22;11504;43.334;21.918;2023-02-11T14:39:24;7.3;100.0
22674;DHT22;11504;43.334;21.918;2023-02-11T14:44:34;7.3;100.0
22674;DHT22;11504;43.334;21.918;2023-02-11T14:49:28;7.2;100.0
22674;DHT22;11504;43.334;21.918;2023-02-11T14:54:22;7.2;100.0
22674;DHT22;11504;43.334;21.918;2023-02-11T14:59:20;7.2;100.0
22674;DHT22;11504;43.334;21.918;2023-02-11T15:04:00;7.2;100.0
22674;DHT22;11504;43.334;21.918;2023-02-11T15:09:06;7.2;100.0
22674;DHT22;11504;43.334;21.918;2023-02-11T15:14:13;7.2;100.0
22674;DHT22;11504;43.334;21.918;2023-02-11T15:19:06;7.3;100.0
22674;DHT22;11504;43.334;21.918;2023-02-11T15:24:20;7.3;100.0
22674;DHT22;11504;43.334;21.918;2023-02-11T15:29:16;7.0;100.0
22674;DHT22;11504;43.334;21.918;2023-02-11T15:33:54;7.0;100.0
22674;DHT22;11504;43.334;21.918;2023-02-11T15:38:31;6.8;100.0
22674;DHT22;11504;43.334;21.918;2023-02-11T15:43:10;6.8;100.0
22674;DHT22;11504;43.334;21.918;2023-02-11T15:47:52;6.8;100.0
22674;DHT22;11504;43.334;21.918;2023-02-11T15:52:34;6.7;100.0
22674;DHT22;11504;43.334;21.918;2023-02-11T15:57:11;6.7;100.0
22674;DHT22;11504;43.334;21.918;2023-02-11T16:01:49;6.6;100.0
22674;DHT22;11504;43.334;21.918;2023-02-11T16:06:38;6.6;100.0
22674;DHT22;11504;43.334;21.918;2023-02-11T16:11:29;6.4;100.0
22674;DHT22;11504;43.334;21.918;2023-02-11T16:16:21;6.4;100.0
22674;DHT22;11504;43.334;21.918;2023-02-11T16:21:17;6.3;100.0
22674;DHT22;11504;43.334;21.918;2023-02-11T16:26:09;6.3;100.0
22674;DHT22;11504;43.334;21.918;2023-02-11T16:31:04;6.2;100.0
22674;DHT22;11504;43.334;21.918;2023-02-11T16:35:41;6.2;100.0
22674;DHT22;11504;43.334;21.918;2023-02-11T16:40:18;6.0;100.0
22674;DHT22;11504;43.334;21.918;2023-02-11T16:44:55;6.0;100.0
22674;DHT22;11504;43.334;21.918;2023-02-11T16:49:39;5.8;100.0
22674;DHT22;11504;43.334;21.918;2023-02-11T16:54:19;5.8;100.0
22674;DHT22;11504;43.334;21.918;2023-02-11T16:58:56;5.6;100.0
22674;DHT22;11504;43.334;21.918;2023-02-11T17:03:33;5.6;100.0
22674;DHT22;11504;43.334;21.918;2023-02-11T17:08:15;5.6;100.0
22674;DHT22;11504;43.334;21.918;2023-02-11T17:12:52;5.5;100.0
22674;DHT22;11504;43.334;21.918;2023-02-11T17:17:28;5.5;100.0
22674;DHT22;11504;43.334;21.918;2023-02-11T17:22:05;5.4;100.0
22674;DHT22;11504;43.334;21.918;2023-02-11T17:26:45;5.4;100.0
22674;DHT22;11504;43.334;21.918;2023-02-11T17:31:23;5.2;100.0
22674;DHT22;11504;43.334;21.918;2023-02-11T17:36:05;5.2;100.0
22674;DHT22;11504;43.334;21.918;2023-02-11T17:40:55;4.9;100.0
22674;DHT22;11504;43.334;21.918;2023-02-11T17:45:39;4.9;100.0
22674;DHT22;11504;43.334;21.918;2023-02-11T17:50:18;4.6;100.0
22674;DHT22;11504;43.334;21.918;2023-02-11T17:54:55;4.6;100.0
22674;DHT22;11504;43.334;21.918;2023-02-11T17:59:32;4.2;100.0
22674;DHT22;11504;43.334;21.918;2023-02-11T18:04:17;4.2;100.0
22674;DHT22;11504;43.334;21.918;2023-02-11T18:08:56;3.9;100.0
22674;DHT22;11504;43.334;21.918;2023-02-11T18:13:33;3.9;100.0
22674;DHT22;11504;43.334;21.918;2023-02-11T18:18:09;3.9;100.0
22674;DHT22;11504;43.334;21.918;2023-02-11T18:22:46;3.6;100.0
22674;DHT22;11504;43.334;21.918;2023-02-11T18:27:23;3.6;100.0
22674;DHT22;11504;43.334;21.918;2023-02-11T18:32:00;3.3;100.0
22674;DHT22;11504;43.334;21.918;2023-02-11T18:36:37;3.3;100.0
22674;DHT22;11504;43.334;21.918;2023-02-11T18:41:14;3.0;100.0
22674;DHT22;11504;43.334;21.918;2023-02-11T18:45:50;3.0;100.0
22674;DHT22;11504;43.334;21.918;2023-02-11T18:50:27;3.0;100.0
22674;DHT22;11504;43.334;21.918;2023-02-11T18:55:06;3.0;100.0
22674;DHT22;11504;43.334;21.918;2023-02-11T18:59:44;2.9;100.0
22674;DHT22;11504;43.334;21.918;2023-02-11T19:04:20;2.9;100.0
22674;DHT22;11504;43.334;21.918;2023-02-11T19:09:05;2.8;100.0
22674;DHT22;11504;43.334;21.918;2023-02-11T19:13:53;2.8;100.0
22674;DHT22;11504;43.334;21.918;2023-02-11T19:18:30;2.8;100.0
22674;DHT22;11504;43.334;21.918;2023-02-11T19:23:07;2.7;100.0
22674;DHT22;11504;43.334;21.918;2023-02-11T19:27:44;2.7;100.0
22674;DHT22;11504;43.334;21.918;2023-02-11T19:32:21;2.8;100.0
22674;DHT22;11504;43.334;21.918;2023-02-11T19:36:57;2.8;100.0
22674;DHT22;11504;43.334;21.918;2023-02-11T19:41:35;2.9;100.0
22674;DHT22;11504;43.334;21.918;2023-02-11T19:46:12;2.9;100.0
22674;DHT22;11504;43.334;21.918;2023-02-11T19:50:49;2.7;100.0
22674;DHT22;11504;43.334;21.918;2023-02-11T19:55:26;2.7;100.0
22674;DHT22;11504;43.334;21.918;2023-02-11T20:00:07;2.5;100.0
22674;DHT22;11504;43.334;21.918;2023-02-11T20:04:44;2.5;100.0
22674;DHT22;11504;43.334;21.918;2023-02-11T20:09:20;2.2;100.0
22674;DHT22;11504;43.334;21.918;2023-02-11T20:13:58;2.2;100.0
22674;DHT22;11504;43.334;21.918;2023-02-11T20:18:36;2.2;100.0
22674;DHT22;11504;43.334;21.918;2023-02-11T20:23:13;2.0;100.0
22674;DHT22;11504;43.334;21.918;2023-02-11T20:27:50;2.0;100.0
22674;DHT22;11504;43.334;21.918;2023-02-11T20:32:26;1.9;100.0
22674;DHT22;11504;43.334;21.918;2023-02-11T20:37:03;1.9;100.0
22674;DHT22;11504;43.334;21.918;2023-02-11T20:41:39;1.8;100.0
22674;DHT22;11504;43.334;21.918;2023-02-11T20:46:23;1.8;100.0
22674;DHT22;11504;43.334;21.918;2023-02-11T20:51:11;1.8;100.0
22674;DHT22;11504;43.334;21.918;2023-02-11T20:55:51;1.8;100.0
22674;DHT22;11504;43.334;21.918;2023-02-11T21:00:28;1.7;100.0
22674;DHT22;11504;43.334;21.918;2023-02-11T21:05:06;1.7;100.0
22674;DHT22;11504;43.334;21.918;2023-02-11T21:09:43;1.8;100.0
22674;DHT22;11504;43.334;21.918;2023-02-11T21:14:24;1.8;100.0
22674;DHT22;11504;43.334;21.918;2023-02-11T21:19:05;1.9;100.0
22674;DHT22;11504;43.334;21.918;2023-02-11T21:23:42;1.9;100.0
22674;DHT22;11504;43.334;21.918;2023-02-11T21:28:19;1.9;100.0
22674;DHT22;11504;43.334;21.918;2023-02-11T21:32:57;2.1;100.0
22674;DHT22;11504;43.334;21.918;2023-02-11T21:37:34;2.1;100.0
22674;DHT22;11504;43.334;21.918;2023-02-11T21:42:10;2.3;100.0
22674;DHT22;11504;43.334;21.918;2023-02-11T21:46:47;2.3;100.0
22674;DHT22;11504;43.334;21.918;2023-02-11T21:51:25;2.2;100.0
22674;DHT22;11504;43.334;21.918;2023-02-11T21:56:09;2.2;100.0
22674;DHT22;11504;43.334;21.918;2023-02-11T22:00:52;2.2;100.0
22674;DHT22;11504;43.334;21.918;2023-02-11T22:05:29;2.2;100.0
22674;DHT22;11504;43.334;21.918;2023-02-11T22:10:08;2.0;100.0
22674;DHT22;11504;43.334;21.918;2023-02-11T22:14:46;2.0;100.0
22674;DHT22;11504;43.334;21.918;2023-02-11T22:19:22;1.9;100.0
22674;DHT22;11504;43.334;21.918;2023-02-11T22:23:59;1.9;100.0
22674;DHT22;11504;43.334;21.918;2023-02-11T22:28:37;1.9;100.0
22674;DHT22;11504;43.334;21.918;2023-02-11T22:33:14;1.8;100.0
22674;DHT22;11504;43.334;21.918;2023-02-11T22:37:51;1.8;100.0
22674;DHT22;11504;43.334;21.918;2023-02-11T22:42:27;1.7;100.0
22674;DHT22;11504;43.334;21.918;2023-02-11T22:47:04;1.7;100.0
22674;DHT22;11504;43.334;21.918;2023-02-11T22:51:42;1.5;100.0
22674;DHT22;11504;43.334;21.918;2023-02-11T22:56:21;1.5;100.0
22674;DHT22;11504;43.334;21.918;2023-02-11T23:01:02;1.4;100.0
22674;DHT22;11504;43.334;21.918;2023-02-11T23:05:42;1.4;100.0
22674;DHT22;11504;43.334;21.918;2023-02-11T23:10:19;1.4;100.0
22674;DHT22;11504;43.334;21.918;2023-02-11T23:14:56;1.4;100.0
22674;DHT22;11504;43.334;21.918;2023-02-11T23:19:33;1.3;100.0
22674;DHT22;11504;43.334;21.918;2023-02-11T23:24:13;1.3;100.0
22674;DHT22;11504;43.334;21.918;2023-02-11T23:28:51;1.3;100.0
22674;DHT22;11504;43.334;21.918;2023-02-11T23:33:28;1.4;100.0
22674;DHT22;11504;43.334;21.918;2023-02-11T23:38:05;1.4;100.0
22674;DHT22;11504;43.334;21.918;2023-02-11T23:42:41;1.5;100.0
22674;DHT22;11504;43.334;21.918;2023-02-11T23:47:18;1.5;100.0
22674;DHT22;11504;43.334;21.918;2023-02-11T23:51:55;1.4;100.0
22674;DHT22;11504;43.334;21.918;2023-02-11T23:56:32;1.4;100.0
